sensor_id;sensor_type;location;lat;lon;timestamp;temperature;humidity
13721;DHT22;6932;51.438;5.470;2022-11-25T09:18:00;17.10;90.90
13721;DHT22;6932;51.438;5.470;2022-11-25T09:20:28;17.20;90.80
13721;DHT22;6932;51.438;5.470;2022-11-25T09:22:56;17.20;90.70
13721;DHT22;6932;51.438;5.470;2022-11-25T09:25:26;17.30;90.60
13721;DHT22;6932;51.438;5.470;2022-11-25T09:27:56;17.40;90.60
13721;DHT22;6932;51.438;5.470;2022-11-25T09:30:23;17.50;90.70
13721;DHT22;6932;51.438;5.470;2022-11-25T09:32:52;17.50;90.40
13721;DHT22;6932;51.438;5.470;2022-11-25T09:35:19;17.60;90.40
13721;DHT22;6932;51.438;5.470;2022-11-25T09:37:48;17.70;90.20
13721;DHT22;6932;51.438;5.470;2022-11-25T09:40:26;17.80;90.10
13721;DHT22;6932;51.438;5.470;2022-11-25T09:55:03;18.20;88.80
13721;DHT22;6932;51.438;5.470;2022-11-25T09:58:14;18.30;88.60
13721;DHT22;6932;51.438;5.470;2022-11-25T10:00:51;18.30;88.60
13721;DHT22;6932;51.438;5.470;2022-11-25T10:06:17;18.40;88.10
13721;DHT22;6932;51.438;5.470;2022-11-25T10:08:50;18.50;87.80
13721;DHT22;6932;51.438;5.470;2022-11-25T10:24:56;18.70;85.50
13721;DHT22;6932;51.438;5.470;2022-11-25T10:27:42;18.60;85.50
13721;DHT22;6932;51.438;5.470;2022-11-25T10:30:23;18.50;85.60
13721;DHT22;6932;51.438;5.470;2022-11-25T10:35:56;18.30;84.80
13721;DHT22;6932;51.438;5.470;2022-11-25T10:38:30;18.20;85.30
13721;DHT22;6932;51.438;5.470;2022-11-25T10:41:04;18.20;85.70
13721;DHT22;6932;51.438;5.470;2022-11-25T10:43:31;18.20;85.70
13721;DHT22;6932;51.438;5.470;2022-11-25T10:51:37;18.20;85.50
13721;DHT22;6932;51.438;5.470;2022-11-25T10:54:14;18.20;85.60
13721;DHT22;6932;51.438;5.470;2022-11-25T10:59:37;18.30;85.80
13721;DHT22;6932;51.438;5.470;2022-11-25T11:02:17;18.40;85.60
13721;DHT22;6932;51.438;5.470;2022-11-25T11:07:40;18.60;85.40
13721;DHT22;6932;51.438;5.470;2022-11-25T11:10:22;18.70;85.30
13721;DHT22;6932;51.438;5.470;2022-11-25T11:15:27;18.90;84.50
13721;DHT22;6932;51.438;5.470;2022-11-25T11:17:57;18.90;84.30
13721;DHT22;6932;51.438;5.470;2022-11-25T11:20:29;19.00;84.20
13721;DHT22;6932;51.438;5.470;2022-11-25T11:23:02;19.00;84.00
13721;DHT22;6932;51.438;5.470;2022-11-25T11:25:40;19.10;84.00
13721;DHT22;6932;51.438;5.470;2022-11-25T11:31:19;19.30;83.30
13721;DHT22;6932;51.438;5.470;2022-11-25T11:34:40;19.30;83.00
13721;DHT22;6932;51.438;5.470;2022-11-25T11:40:30;19.40;82.90
13721;DHT22;6932;51.438;5.470;2022-11-25T11:46:02;19.50;81.90
13721;DHT22;6932;51.438;5.470;2022-11-25T11:57:10;19.60;81.30
13721;DHT22;6932;51.438;5.470;2022-11-25T11:59:52;19.60;81.30
13721;DHT22;6932;51.438;5.470;2022-11-25T12:02:43;19.60;81.30
13721;DHT22;6932;51.438;5.470;2022-11-25T12:05:34;19.60;81.10
13721;DHT22;6932;51.438;5.470;2022-11-25T12:08:28;19.70;80.80
13721;DHT22;6932;51.438;5.470;2022-11-25T12:11:04;19.60;80.60
13721;DHT22;6932;51.438;5.470;2022-11-25T12:13:49;19.70;80.40
13721;DHT22;6932;51.438;5.470;2022-11-25T12:16:25;19.70;80.30
13721;DHT22;6932;51.438;5.470;2022-11-25T12:19:11;19.70;80.00
13721;DHT22;6932;51.438;5.470;2022-11-25T12:27:35;19.60;80.10
13721;DHT22;6932;51.438;5.470;2022-11-25T12:30:19;19.60;80.10
13721;DHT22;6932;51.438;5.470;2022-11-25T12:33:15;19.60;80.00
13721;DHT22;6932;51.438;5.470;2022-11-25T12:36:11;19.60;80.00
13721;DHT22;6932;51.438;5.470;2022-11-25T12:38:59;19.60;80.20
13721;DHT22;6932;51.438;5.470;2022-11-25T12:41:55;19.60;79.90
13721;DHT22;6932;51.438;5.470;2022-11-25T12:46:54;19.60;80.00
13721;DHT22;6932;51.438;5.470;2022-11-25T12:49:27;19.50;80.00
13721;DHT22;6932;51.438;5.470;2022-11-25T12:55:13;19.50;80.50
13721;DHT22;6932;51.438;5.470;2022-11-25T13:15:44;19.40;80.50
13721;DHT22;6932;51.438;5.470;2022-11-25T13:18:16;19.40;80.30
13721;DHT22;6932;51.438;5.470;2022-11-25T13:20:55;19.40;80.50
13721;DHT22;6932;51.438;5.470;2022-11-25T13:23:44;19.30;80.40
13721;DHT22;6932;51.438;5.470;2022-11-25T13:26:32;19.30;80.60
13721;DHT22;6932;51.438;5.470;2022-11-25T13:34:34;19.20;80.70
13721;DHT22;6932;51.438;5.470;2022-11-25T13:37:11;19.10;80.80
13721;DHT22;6932;51.438;5.470;2022-11-25T13:40:20;19.10;80.80
13721;DHT22;6932;51.438;5.470;2022-11-25T13:42:58;19.10;81.00
13721;DHT22;6932;51.438;5.470;2022-11-25T13:45:39;19.10;81.10
13721;DHT22;6932;51.438;5.470;2022-11-25T13:50:36;19.00;81.30
13721;DHT22;6932;51.438;5.470;2022-11-25T13:53:04;19.00;81.30
13721;DHT22;6932;51.438;5.470;2022-11-25T13:55:41;19.00;81.40
13721;DHT22;6932;51.438;5.470;2022-11-25T14:14:45;18.80;81.40
13721;DHT22;6932;51.438;5.470;2022-11-25T14:20:54;18.80;81.70
13721;DHT22;6932;51.438;5.470;2022-11-25T14:24:05;18.70;81.80
13721;DHT22;6932;51.438;5.470;2022-11-25T14:26:40;18.70;81.90
13721;DHT22;6932;51.438;5.470;2022-11-25T14:29:22;18.70;81.90
13721;DHT22;6932;51.438;5.470;2022-11-25T14:31:53;18.70;82.00
13721;DHT22;6932;51.438;5.470;2022-11-25T14:34:28;18.70;82.00
13721;DHT22;6932;51.438;5.470;2022-11-25T14:40:09;18.60;82.20
13721;DHT22;6932;51.438;5.470;2022-11-25T14:42:42;18.60;82.20
13721;DHT22;6932;51.438;5.470;2022-11-25T14:45:20;18.60;82.30
13721;DHT22;6932;51.438;5.470;2022-11-25T14:47:53;18.60;82.50
13721;DHT22;6932;51.438;5.470;2022-11-25T14:50:19;18.60;82.60
13721;DHT22;6932;51.438;5.470;2022-11-25T14:52:45;18.60;82.60
13721;DHT22;6932;51.438;5.470;2022-11-25T14:55:23;18.50;82.70
13721;DHT22;6932;51.438;5.470;2022-11-25T14:57:54;18.50;82.60
13721;DHT22;6932;51.438;5.470;2022-11-25T15:00:20;18.50;82.80
13721;DHT22;6932;51.438;5.470;2022-11-25T15:02:58;18.50;83.00
13721;DHT22;6932;51.438;5.470;2022-11-25T15:08:13;18.50;83.00
13721;DHT22;6932;51.438;5.470;2022-11-25T15:10:52;18.50;83.00
13721;DHT22;6932;51.438;5.470;2022-11-25T15:13:33;18.50;83.10
13721;DHT22;6932;51.438;5.470;2022-11-25T15:16:19;18.40;83.20
13721;DHT22;6932;51.438;5.470;2022-11-25T15:18:51;18.40;83.20
13721;DHT22;6932;51.438;5.470;2022-11-25T15:21:22;18.40;83.20
13721;DHT22;6932;51.438;5.470;2022-11-25T15:23:53;18.40;83.10
13721;DHT22;6932;51.438;5.470;2022-11-25T15:26:22;18.40;83.20
13721;DHT22;6932;51.438;5.470;2022-11-25T15:28:57;18.40;83.10
13721;DHT22;6932;51.438;5.470;2022-11-25T15:31:32;18.30;83.20
13721;DHT22;6932;51.438;5.470;2022-11-25T15:34:02;18.30;83.30
13721;DHT22;6932;51.438;5.470;2022-11-25T15:36:29;18.30;83.20
13721;DHT22;6932;51.438;5.470;2022-11-25T15:39:14;18.30;83.20
13721;DHT22;6932;51.438;5.470;2022-11-25T15:42:01;18.20;83.30
13721;DHT22;6932;51.438;5.470;2022-11-25T15:44:53;18.20;83.30
13721;DHT22;6932;51.438;5.470;2022-11-25T15:47:24;18.20;83.40
13721;DHT22;6932;51.438;5.470;2022-11-25T15:49:59;18.20;83.50
13721;DHT22;6932;51.438;5.470;2022-11-25T15:52:35;18.10;83.60
13721;DHT22;6932;51.438;5.470;2022-11-25T15:55:06;18.10;83.70
13721;DHT22;6932;51.438;5.470;2022-11-25T15:57:48;18.10;83.90
13721;DHT22;6932;51.438;5.470;2022-11-25T16:00:19;18.10;83.90
13721;DHT22;6932;51.438;5.470;2022-11-25T16:26:32;17.90;84.10
13721;DHT22;6932;51.438;5.470;2022-11-25T16:29:07;17.80;84.20
13721;DHT22;6932;51.438;5.470;2022-11-25T16:31:40;17.80;84.30
13721;DHT22;6932;51.438;5.470;2022-11-25T16:34:16;17.80;84.40
13721;DHT22;6932;51.438;5.470;2022-11-25T16:36:43;17.80;84.60
13721;DHT22;6932;51.438;5.470;2022-11-25T16:39:10;17.80;84.60
13721;DHT22;6932;51.438;5.470;2022-11-25T16:41:36;17.80;84.60
13721;DHT22;6932;51.438;5.470;2022-11-25T16:44:17;17.70;84.70
13721;DHT22;6932;51.438;5.470;2022-11-25T16:46:45;17.70;84.80
13721;DHT22;6932;51.438;5.470;2022-11-25T16:49:13;17.70;84.80
13721;DHT22;6932;51.438;5.470;2022-11-25T16:51:41;17.70;84.90
13721;DHT22;6932;51.438;5.470;2022-11-25T16:54:07;17.70;85.00
13721;DHT22;6932;51.438;5.470;2022-11-25T16:56:36;17.70;85.20
13721;DHT22;6932;51.438;5.470;2022-11-25T16:59:03;17.60;85.10
13721;DHT22;6932;51.438;5.470;2022-11-25T17:01:30;17.60;85.20
13721;DHT22;6932;51.438;5.470;2022-11-25T17:03:57;17.60;85.30
13721;DHT22;6932;51.438;5.470;2022-11-25T17:06:27;17.60;85.30
13721;DHT22;6932;51.438;5.470;2022-11-25T17:08:54;17.60;85.40
13721;DHT22;6932;51.438;5.470;2022-11-25T17:11:21;17.60;85.50
13721;DHT22;6932;51.438;5.470;2022-11-25T17:13:53;17.50;85.50
13721;DHT22;6932;51.438;5.470;2022-11-25T17:16:21;17.50;85.50
13721;DHT22;6932;51.438;5.470;2022-11-25T17:18:51;17.50;85.60
13721;DHT22;6932;51.438;5.470;2022-11-25T17:21:19;17.50;85.50
13721;DHT22;6932;51.438;5.470;2022-11-25T17:23:45;17.50;85.50
13721;DHT22;6932;51.438;5.470;2022-11-25T17:26:18;17.50;85.60
13721;DHT22;6932;51.438;5.470;2022-11-25T17:28:55;17.40;85.70
13721;DHT22;6932;51.438;5.470;2022-11-25T17:31:29;17.40;85.80
13721;DHT22;6932;51.438;5.470;2022-11-25T17:33:56;17.40;85.80
13721;DHT22;6932;51.438;5.470;2022-11-25T17:36:22;17.40;85.90
13721;DHT22;6932;51.438;5.470;2022-11-25T17:38:49;17.40;86.00
13721;DHT22;6932;51.438;5.470;2022-11-25T17:41:17;17.40;86.00
13721;DHT22;6932;51.438;5.470;2022-11-25T17:43:45;17.30;86.00
13721;DHT22;6932;51.438;5.470;2022-11-25T17:46:15;17.30;86.10
13721;DHT22;6932;51.438;5.470;2022-11-25T17:48:42;17.30;86.10
13721;DHT22;6932;51.438;5.470;2022-11-25T17:51:12;17.30;86.10
13721;DHT22;6932;51.438;5.470;2022-11-25T17:53:39;17.30;86.10
13721;DHT22;6932;51.438;5.470;2022-11-25T17:56:24;17.30;86.00
13721;DHT22;6932;51.438;5.470;2022-11-25T17:58:53;17.20;86.10
13721;DHT22;6932;51.438;5.470;2022-11-25T18:01:20;17.30;86.00
13721;DHT22;6932;51.438;5.470;2022-11-25T18:03:46;17.20;86.00
13721;DHT22;6932;51.438;5.470;2022-11-25T18:06:17;17.20;86.10
13721;DHT22;6932;51.438;5.470;2022-11-25T18:08:44;17.20;86.20
13721;DHT22;6932;51.438;5.470;2022-11-25T18:11:14;17.10;86.10
13721;DHT22;6932;51.438;5.470;2022-11-25T18:13:44;17.10;86.10
13721;DHT22;6932;51.438;5.470;2022-11-25T18:16:11;17.10;85.80
13721;DHT22;6932;51.438;5.470;2022-11-25T18:18:42;17.00;86.10
13721;DHT22;6932;51.438;5.470;2022-11-25T18:21:08;16.80;86.30
13721;DHT22;6932;51.438;5.470;2022-11-25T18:23:36;16.70;86.80
13721;DHT22;6932;51.438;5.470;2022-11-25T18:26:01;16.50;87.20
13721;DHT22;6932;51.438;5.470;2022-11-25T18:28:29;16.40;87.60
13721;DHT22;6932;51.438;5.470;2022-11-25T18:30:59;16.30;88.00
13721;DHT22;6932;51.438;5.470;2022-11-25T18:33:28;16.30;88.20
13721;DHT22;6932;51.438;5.470;2022-11-25T18:35:54;16.30;88.40
13721;DHT22;6932;51.438;5.470;2022-11-25T18:38:20;16.30;88.40
13721;DHT22;6932;51.438;5.470;2022-11-25T18:40:46;16.30;88.50
13721;DHT22;6932;51.438;5.470;2022-11-25T18:43:16;16.30;88.40
13721;DHT22;6932;51.438;5.470;2022-11-25T18:45:48;16.30;88.30
13721;DHT22;6932;51.438;5.470;2022-11-25T18:48:17;16.40;88.20
13721;DHT22;6932;51.438;5.470;2022-11-25T18:50:46;16.40;88.20
13721;DHT22;6932;51.438;5.470;2022-11-25T18:53:13;16.40;88.20
13721;DHT22;6932;51.438;5.470;2022-11-25T18:55:39;16.40;88.20
13721;DHT22;6932;51.438;5.470;2022-11-25T18:58:17;16.40;88.10
13721;DHT22;6932;51.438;5.470;2022-11-25T19:00:48;16.40;88.00
13721;DHT22;6932;51.438;5.470;2022-11-25T19:03:21;16.40;88.00
13721;DHT22;6932;51.438;5.470;2022-11-25T19:05:49;16.40;87.90
13721;DHT22;6932;51.438;5.470;2022-11-25T19:08:16;16.40;87.80
13721;DHT22;6932;51.438;5.470;2022-11-25T19:10:44;16.40;87.80
13721;DHT22;6932;51.438;5.470;2022-11-25T19:13:32;16.40;87.80
13721;DHT22;6932;51.438;5.470;2022-11-25T19:16:09;16.30;87.70
13721;DHT22;6932;51.438;5.470;2022-11-25T19:18:39;16.30;87.60
13721;DHT22;6932;51.438;5.470;2022-11-25T19:21:16;16.30;87.70
13721;DHT22;6932;51.438;5.470;2022-11-25T19:23:44;16.30;87.70
13721;DHT22;6932;51.438;5.470;2022-11-25T19:26:23;16.30;87.70
13721;DHT22;6932;51.438;5.470;2022-11-25T19:29:02;16.20;87.60
13721;DHT22;6932;51.438;5.470;2022-11-25T19:31:32;16.20;87.60
13721;DHT22;6932;51.438;5.470;2022-11-25T19:33:59;16.20;87.60
13721;DHT22;6932;51.438;5.470;2022-11-25T19:36:26;16.20;87.60
13721;DHT22;6932;51.438;5.470;2022-11-25T19:38:55;16.10;87.60
13721;DHT22;6932;51.438;5.470;2022-11-25T19:41:22;16.10;87.60
13721;DHT22;6932;51.438;5.470;2022-11-25T19:43:48;16.10;87.60
13721;DHT22;6932;51.438;5.470;2022-11-25T19:46:26;16.00;87.60
13721;DHT22;6932;51.438;5.470;2022-11-25T19:48:57;16.10;87.70
13721;DHT22;6932;51.438;5.470;2022-11-25T19:51:27;16.00;87.70
13721;DHT22;6932;51.438;5.470;2022-11-25T19:53:56;16.00;87.70
13721;DHT22;6932;51.438;5.470;2022-11-25T19:56:22;16.00;87.70
13721;DHT22;6932;51.438;5.470;2022-11-25T19:58:49;16.00;87.70
13721;DHT22;6932;51.438;5.470;2022-11-25T20:01:17;16.00;87.60
13721;DHT22;6932;51.438;5.470;2022-11-25T20:03:45;15.90;87.60
13721;DHT22;6932;51.438;5.470;2022-11-25T20:06:16;15.90;87.70
13721;DHT22;6932;51.438;5.470;2022-11-25T20:08:44;15.90;87.80
13721;DHT22;6932;51.438;5.470;2022-11-25T20:11:13;15.80;87.90
13721;DHT22;6932;51.438;5.470;2022-11-25T20:13:43;15.80;88.00
13721;DHT22;6932;51.438;5.470;2022-11-25T20:16:20;15.80;88.00
13721;DHT22;6932;51.438;5.470;2022-11-25T20:18:49;15.80;88.10
13721;DHT22;6932;51.438;5.470;2022-11-25T20:21:46;15.80;88.10
13721;DHT22;6932;51.438;5.470;2022-11-25T20:24:14;15.70;88.00
13721;DHT22;6932;51.438;5.470;2022-11-25T20:26:43;15.70;87.90
13721;DHT22;6932;51.438;5.470;2022-11-25T20:29:18;15.70;88.00
13721;DHT22;6932;51.438;5.470;2022-11-25T20:31:45;15.70;88.10
13721;DHT22;6932;51.438;5.470;2022-11-25T20:34:11;15.70;88.10
13721;DHT22;6932;51.438;5.470;2022-11-25T20:36:38;15.70;88.20
13721;DHT22;6932;51.438;5.470;2022-11-25T20:39:06;15.60;88.20
13721;DHT22;6932;51.438;5.470;2022-11-25T20:41:32;15.60;88.20
13721;DHT22;6932;51.438;5.470;2022-11-25T20:43:59;15.60;88.30
13721;DHT22;6932;51.438;5.470;2022-11-25T20:46:27;15.60;88.30
13721;DHT22;6932;51.438;5.470;2022-11-25T20:49:00;15.60;88.40
13721;DHT22;6932;51.438;5.470;2022-11-25T20:51:34;15.50;88.40
13721;DHT22;6932;51.438;5.470;2022-11-25T20:54:00;15.50;88.40
13721;DHT22;6932;51.438;5.470;2022-11-25T20:56:26;15.50;88.40
13721;DHT22;6932;51.438;5.470;2022-11-25T20:58:52;15.50;88.50
13721;DHT22;6932;51.438;5.470;2022-11-25T21:01:18;15.50;88.50
13721;DHT22;6932;51.438;5.470;2022-11-25T21:03:45;15.40;88.50
13721;DHT22;6932;51.438;5.470;2022-11-25T21:06:18;15.40;89.20
13721;DHT22;6932;51.438;5.470;2022-11-25T21:08:48;15.40;88.50
13721;DHT22;6932;51.438;5.470;2022-11-25T21:11:16;15.40;88.60
13721;DHT22;6932;51.438;5.470;2022-11-25T21:13:43;15.40;88.60
13721;DHT22;6932;51.438;5.470;2022-11-25T21:16:09;15.40;88.60
13721;DHT22;6932;51.438;5.470;2022-11-25T21:18:35;15.40;88.60
13721;DHT22;6932;51.438;5.470;2022-11-25T21:21:01;15.40;88.60
13721;DHT22;6932;51.438;5.470;2022-11-25T21:23:30;15.30;88.50
13721;DHT22;6932;51.438;5.470;2022-11-25T21:26:12;15.30;88.50
13721;DHT22;6932;51.438;5.470;2022-11-25T21:28:44;15.30;88.60
13721;DHT22;6932;51.438;5.470;2022-11-25T21:31:20;15.30;88.60
13721;DHT22;6932;51.438;5.470;2022-11-25T21:33:48;15.20;88.50
13721;DHT22;6932;51.438;5.470;2022-11-25T21:36:23;15.20;88.50
13721;DHT22;6932;51.438;5.470;2022-11-25T21:39:02;15.20;88.50
13721;DHT22;6932;51.438;5.470;2022-11-25T21:41:33;15.20;88.40
13721;DHT22;6932;51.438;5.470;2022-11-25T21:44:00;15.10;88.30
13721;DHT22;6932;51.438;5.470;2022-11-25T21:46:29;15.10;88.30
13721;DHT22;6932;51.438;5.470;2022-11-25T21:48:55;15.00;88.30
13721;DHT22;6932;51.438;5.470;2022-11-25T21:51:21;15.00;88.40
13721;DHT22;6932;51.438;5.470;2022-11-25T21:53:52;15.00;88.40
13721;DHT22;6932;51.438;5.470;2022-11-25T21:56:27;15.00;88.50
13721;DHT22;6932;51.438;5.470;2022-11-25T21:58:57;14.90;88.50
13721;DHT22;6932;51.438;5.470;2022-11-25T22:01:24;14.90;88.50
13721;DHT22;6932;51.438;5.470;2022-11-25T22:03:50;14.90;88.60
13721;DHT22;6932;51.438;5.470;2022-11-25T22:06:27;14.80;88.60
13721;DHT22;6932;51.438;5.470;2022-11-25T22:08:55;14.80;88.60
13721;DHT22;6932;51.438;5.470;2022-11-25T22:11:51;14.80;88.60
13721;DHT22;6932;51.438;5.470;2022-11-25T22:14:31;14.80;88.70
13721;DHT22;6932;51.438;5.470;2022-11-25T22:17:04;14.80;88.70
13721;DHT22;6932;51.438;5.470;2022-11-25T22:19:34;14.80;88.70
13721;DHT22;6932;51.438;5.470;2022-11-25T22:22:00;14.70;88.70
13721;DHT22;6932;51.438;5.470;2022-11-25T22:24:27;14.70;88.80
13721;DHT22;6932;51.438;5.470;2022-11-25T22:26:53;14.70;88.90
13721;DHT22;6932;51.438;5.470;2022-11-25T22:29:22;14.70;88.90
13721;DHT22;6932;51.438;5.470;2022-11-25T22:31:51;14.60;89.50
13721;DHT22;6932;51.438;5.470;2022-11-25T22:34:19;14.70;88.90
13721;DHT22;6932;51.438;5.470;2022-11-25T22:36:47;14.60;88.90
13721;DHT22;6932;51.438;5.470;2022-11-25T22:39:19;14.60;89.00
13721;DHT22;6932;51.438;5.470;2022-11-25T22:44:39;14.60;89.00
13721;DHT22;6932;51.438;5.470;2022-11-25T22:50:21;14.50;89.00
13721;DHT22;6932;51.438;5.470;2022-11-25T22:52:51;14.50;89.00
13721;DHT22;6932;51.438;5.470;2022-11-25T22:55:24;14.50;89.00
13721;DHT22;6932;51.438;5.470;2022-11-25T22:57:54;14.50;89.00
13721;DHT22;6932;51.438;5.470;2022-11-25T23:02:54;14.40;89.10
13721;DHT22;6932;51.438;5.470;2022-11-25T23:05:25;14.50;89.20
13721;DHT22;6932;51.438;5.470;2022-11-25T23:07:53;14.40;89.10
13721;DHT22;6932;51.438;5.470;2022-11-25T23:10:22;14.40;89.10
13721;DHT22;6932;51.438;5.470;2022-11-25T23:12:50;14.40;89.10
13721;DHT22;6932;51.438;5.470;2022-11-25T23:15:18;14.40;89.20
13721;DHT22;6932;51.438;5.470;2022-11-25T23:17:55;14.40;89.20
13721;DHT22;6932;51.438;5.470;2022-11-25T23:20:32;14.40;89.20
13721;DHT22;6932;51.438;5.470;2022-11-25T23:23:16;14.30;89.10
13721;DHT22;6932;51.438;5.470;2022-11-25T23:25:45;14.40;89.20
13721;DHT22;6932;51.438;5.470;2022-11-25T23:28:11;14.30;89.70
13721;DHT22;6932;51.438;5.470;2022-11-25T23:30:39;14.30;89.10
13721;DHT22;6932;51.438;5.470;2022-11-25T23:33:21;14.30;89.10
13721;DHT22;6932;51.438;5.470;2022-11-25T23:35:54;14.30;89.20
13721;DHT22;6932;51.438;5.470;2022-11-25T23:38:23;14.30;89.20
13721;DHT22;6932;51.438;5.470;2022-11-25T23:40:50;14.30;89.20
13721;DHT22;6932;51.438;5.470;2022-11-25T23:43:16;14.30;89.20
13721;DHT22;6932;51.438;5.470;2022-11-25T23:45:50;14.30;89.30
13721;DHT22;6932;51.438;5.470;2022-11-25T23:48:20;14.30;89.20
13721;DHT22;6932;51.438;5.470;2022-11-25T23:50:49;14.30;89.20
13721;DHT22;6932;51.438;5.470;2022-11-25T23:53:25;14.30;89.20
13721;DHT22;6932;51.438;5.470;2022-11-25T23:55:54;14.20;89.20
13721;DHT22;6932;51.438;5.470;2022-11-25T23:58:21;14.20;89.20
